Terre Hill, Pennsylvania
Current Conditions -  °F | °C
As of 6:53 PM on Wednesday 17 Dec 2014 (Local Time) from KLNS Reporting Station
Broken Clouds Broken Clouds  
Wind Chill: 30°   Ceiling: 4800
Heat Index: 38°   Visibility: 10mi
Dew Point: 25°   Wind: 14mph
Humidity: 60%   Direction: 290°WNW
Pressure: 29.98"   Gusts: NA
Location:  40.16°N, 76.05°W
Report Text: KLNS 172353Z 29012KT 10SM BKN048 03/M04 A2998 RMK AO2 SLP155 T00331039 10089 20033 51012
Loading
Personal Weather Stations






























Interactive Weather Map New forecast layout! Learn more

10-Day Weather Forecast

Advertisements
Track Severe Weather on mobile